Delray Beach, FL

7:26 AM EDT on July 28, 2015 (GMT -0400)
Lake Ida - Garden House | | Change Station
CLOSE
Current Station
Personal Weather Station
Location: Delray Beach, FL
Elevation: 0 ft
Nearby Weather Stations

Elev 0 ft 26.48 °N, 80.07 °W | Updated 7 minutes ago

Partly Cloudy
Partly Cloudy
75.4 °F
Feels Like 75 °F
N
0.0
Wind Variable Wind from SE

Today
High -- | Low -- °F
--% Chance of Precip.
Yesterday
High -- | Low -- °F
Precip. -- in
6:43 AM 8:09 PM
Waxing Gibbous, 89% visible
Pressure 30.01 in
Visibility 4.0 miles
Clouds Clear
Heat Index 75 °F
Dew Point 73 °F
Humidity 91%
Rainfall 0.00 in
Snow Depth Not available.
UV 0 out of 12
Pollen 3.50 out of 12
Air Quality Not available.
Flu Activity Not available.
METAR KPMP 281053Z 20003KT 4SM BR CLR 26/24 A3000 RMK AO2 SLP161 T02560239

More Conditions Fewer Conditions

Pressure 30.01 in
Visibility 4.0 miles
Clouds Clear
Heat Index 75 °F
Dew Point 73 °F
Humidity 91%
Rainfall 0.00 in
Snow Depth Not available.
UV 0 out of 12
Pollen 3.50 out of 12
Air Quality Not available.
Flu Activity Not available.
METAR KPMP 281053Z 20003KT 4SM BR CLR 26/24 A3000 RMK AO2 SLP161 T02560239

More Conditions Fewer Conditions

10-Day Weather Forecast

×

Almanac

Astronomy

Jul. 28, 2015 Rise Set
Actual Time
Civil Twilight
Nautical Twilight
Astronomical Twilight
Moon
Length of Visible Light
Length of Day
Tomorrow will be .
, % of the Moon is Illuminated

Today's Extremes

State Highs State Lows

Community

WunderPhotos

Upload Photos

1,841,808 photos uploaded!

WunderBlogs® & News

Nearby

Air Quality

  Air Quality AQ Index Pollutant
Not available.

Snow Depth

Station Depth Elevation

Earthquake Activity

City Distance Mag. Time & Date
Minimum magnitude displayed is 2.5.

Coastal Water Temperatures

Place Temperature

Stations

Nearby Weather Stations

Station Location Temp. Windchill Dew Point Humidity Wind Precip. Elev Updated Type